createdAt,value
2024-03-19T00:00:40.450Z,0.81
2024-03-19T00:01:40.535Z,0.80
2024-03-19T00:02:40.531Z,0.80
2024-03-19T00:03:40.552Z,0.80
2024-03-19T00:04:40.558Z,0.81
2024-03-19T00:05:40.700Z,0.81
2024-03-19T00:06:40.656Z,0.82
2024-03-19T00:07:40.751Z,0.81
2024-03-19T00:08:40.733Z,0.82
2024-03-19T00:09:40.694Z,0.80
2024-03-19T00:10:40.744Z,0.81
2024-03-19T00:11:40.768Z,0.82
2024-03-19T00:12:40.788Z,0.80
2024-03-19T00:13:40.834Z,0.83
2024-03-19T00:14:40.838Z,0.84
2024-03-19T00:15:40.878Z,0.83
2024-03-19T00:16:40.998Z,0.82
2024-03-19T00:17:40.923Z,0.84
2024-03-19T00:18:40.964Z,0.84
2024-03-19T00:19:41.029Z,0.85
2024-03-19T00:20:41.008Z,0.85
2024-03-19T00:21:41.021Z,0.83
2024-03-19T00:22:41.083Z,0.83
2024-03-19T00:23:41.096Z,0.86
2024-03-19T00:24:41.127Z,0.85
2024-03-19T00:25:41.217Z,0.84
2024-03-19T00:26:41.699Z,0.86
2024-03-19T00:27:41.225Z,0.84
2024-03-19T00:28:41.237Z,0.86
2024-03-19T00:29:41.280Z,0.87
2024-03-19T00:30:41.285Z,0.85
2024-03-19T00:31:41.411Z,0.87
2024-03-19T00:32:41.359Z,0.86
2024-03-19T00:33:41.371Z,0.87
2024-03-19T00:34:41.389Z,0.87
2024-03-19T00:35:41.383Z,0.87
2024-03-19T00:36:41.516Z,0.86
2024-03-19T00:37:41.489Z,0.87
2024-03-19T00:38:41.519Z,0.87
2024-03-19T00:39:41.510Z,0.89
2024-03-19T00:40:41.521Z,0.89
2024-03-19T00:41:41.576Z,0.89
2024-03-19T00:42:41.642Z,0.89
2024-03-19T00:43:41.646Z,0.89
2024-03-19T00:44:41.663Z,0.89
2024-03-19T00:45:41.683Z,0.89
2024-03-19T00:46:41.723Z,0.90
2024-03-19T00:47:41.734Z,0.89
2024-03-19T00:48:41.792Z,0.90
2024-03-19T00:49:41.781Z,0.90
2024-03-19T00:50:42.043Z,0.88
2024-03-19T00:51:41.867Z,0.91
2024-03-19T00:52:41.904Z,0.89
2024-03-19T00:53:41.970Z,0.89
2024-03-19T00:54:42.026Z,0.91
2024-03-19T00:55:42.073Z,0.91
2024-03-19T00:56:42.035Z,0.91
2024-03-19T00:57:42.082Z,0.89
2024-03-19T00:58:42.136Z,0.90
2024-03-19T00:59:42.176Z,0.89
2024-03-19T01:00:42.207Z,0.92
2024-03-19T01:01:42.269Z,0.90
2024-03-19T01:02:42.258Z,0.90
2024-03-19T01:03:42.286Z,0.92
2024-03-19T01:04:44.516Z,0.91
2024-03-19T01:05:42.388Z,0.92
2024-03-19T01:06:42.401Z,0.92
2024-03-19T01:07:42.428Z,0.91
2024-03-19T01:08:42.432Z,0.91
2024-03-19T01:09:42.609Z,0.92
2024-03-19T01:10:42.469Z,0.93
2024-03-19T01:11:42.523Z,0.93
2024-03-19T01:12:42.559Z,0.92
2024-03-19T01:13:42.588Z,0.92
2024-03-19T01:14:42.648Z,0.91
2024-03-19T01:15:42.662Z,0.91
2024-03-19T01:16:42.689Z,0.92
2024-03-19T01:17:42.750Z,0.92
2024-03-19T01:18:42.779Z,0.93
2024-03-19T01:19:42.817Z,0.92
2024-03-19T01:20:42.835Z,0.92
2024-03-19T01:21:42.851Z,0.94
2024-03-19T01:22:42.864Z,0.93
2024-03-19T01:23:42.880Z,0.94
2024-03-19T01:24:42.909Z,0.94
2024-03-19T01:25:43.004Z,0.94
2024-03-19T01:26:43.013Z,0.92
2024-03-19T01:27:43.041Z,0.93
2024-03-19T01:28:43.045Z,0.94
2024-03-19T01:29:43.086Z,0.94
2024-03-19T01:30:43.159Z,0.94
2024-03-19T01:31:43.183Z,0.93
2024-03-19T01:32:43.190Z,0.94
2024-03-19T01:33:43.240Z,0.95
2024-03-19T01:34:43.408Z,0.95
2024-03-19T01:35:43.304Z,0.96
2024-03-19T01:36:43.302Z,0.95
2024-03-19T01:37:43.361Z,0.96
2024-03-19T01:38:43.402Z,0.95
2024-03-19T01:39:43.421Z,0.95
2024-03-19T01:40:43.480Z,0.96
2024-03-19T01:41:43.511Z,0.96
2024-03-19T01:42:43.534Z,0.95
2024-03-19T01:43:43.551Z,0.95
2024-03-19T01:44:43.563Z,0.94
2024-03-19T01:45:43.618Z,0.95
2024-03-19T01:46:43.620Z,0.96
2024-03-19T01:47:43.691Z,0.94
2024-03-19T01:48:43.695Z,0.94
2024-03-19T01:49:43.713Z,0.96
2024-03-19T01:50:43.792Z,0.97
2024-03-19T01:51:43.847Z,0.95
2024-03-19T01:52:43.878Z,0.97
2024-03-19T01:53:43.863Z,0.98
2024-03-19T01:54:43.923Z,0.94
2024-03-19T01:55:43.913Z,0.97
2024-03-19T01:56:43.955Z,0.96
2024-03-19T01:57:43.958Z,0.96
2024-03-19T01:58:44.000Z,0.96
2024-03-19T01:59:44.039Z,0.98
2024-03-19T02:00:44.057Z,0.95
2024-03-19T02:01:44.099Z,0.98
2024-03-19T02:02:44.131Z,0.98
2024-03-19T02:03:44.177Z,0.96
2024-03-19T02:04:44.218Z,0.96
2024-03-19T02:05:44.269Z,0.98
2024-03-19T02:06:44.274Z,0.98
2024-03-19T02:07:44.320Z,0.97
2024-03-19T02:08:44.344Z,0.96
2024-03-19T02:09:44.359Z,0.96
2024-03-19T02:10:44.418Z,0.98
2024-03-19T02:11:44.428Z,0.97
2024-03-19T02:12:44.580Z,0.99
2024-03-19T02:13:44.516Z,0.96
2024-03-19T02:14:44.531Z,0.98
2024-03-19T02:15:44.597Z,0.97
2024-03-19T02:16:44.644Z,0.98
2024-03-19T02:17:44.653Z,0.98
2024-03-19T02:18:44.670Z,0.97
2024-03-19T02:19:44.698Z,0.99
2024-03-19T02:20:44.838Z,0.99
2024-03-19T02:21:45.247Z,0.99
2024-03-19T02:22:44.871Z,1.00
2024-03-19T02:23:44.825Z,1.00
2024-03-19T02:24:44.879Z,0.98
2024-03-19T02:25:44.902Z,0.99
2024-03-19T02:26:44.955Z,1.00
2024-03-19T02:27:44.998Z,0.99
2024-03-19T02:28:45.044Z,0.97
2024-03-19T02:29:45.091Z,0.98
2024-03-19T02:30:45.157Z,0.99
2024-03-19T02:31:45.169Z,1.00
2024-03-19T02:32:45.194Z,0.99
2024-03-19T02:33:45.202Z,0.99
2024-03-19T02:34:45.247Z,1.01
2024-03-19T02:35:45.279Z,0.98
2024-03-19T02:36:45.356Z,0.98
2024-03-19T02:37:45.413Z,0.99
2024-03-19T02:38:45.413Z,1.01
2024-03-19T02:39:45.439Z,0.98
2024-03-19T02:40:45.486Z,1.01
2024-03-19T02:41:45.484Z,0.99
2024-03-19T02:42:45.548Z,0.99
2024-03-19T02:43:45.567Z,0.99
2024-03-19T02:44:45.682Z,1.01
2024-03-19T02:45:45.673Z,1.01
2024-03-19T02:46:45.679Z,1.01
2024-03-19T02:47:45.712Z,0.99
2024-03-19T02:48:45.750Z,1.01
2024-03-19T02:49:45.760Z,1.00
2024-03-19T02:50:45.815Z,1.00
2024-03-19T02:51:45.873Z,0.98
2024-03-19T02:52:45.845Z,1.01
2024-03-19T02:53:45.925Z,1.00
2024-03-19T02:54:45.930Z,1.00
2024-03-19T02:55:46.004Z,1.02
2024-03-19T02:56:46.022Z,1.02
2024-03-19T02:57:46.051Z,1.01
2024-03-19T02:58:46.058Z,1.00
2024-03-19T02:59:46.100Z,1.02
2024-03-19T03:00:46.150Z,0.99
2024-03-19T03:01:46.201Z,1.00
2024-03-19T03:02:46.262Z,1.02
2024-03-19T03:03:46.273Z,1.02
2024-03-19T03:04:46.317Z,1.01
2024-03-19T03:05:46.332Z,1.02
2024-03-19T03:06:46.352Z,0.99
2024-03-19T03:07:46.439Z,1.02
2024-03-19T03:08:46.449Z,1.02
2024-03-19T03:09:46.468Z,1.02
2024-03-19T03:10:46.540Z,1.03
2024-03-19T03:11:46.534Z,1.01
2024-03-19T03:12:46.568Z,1.02
2024-03-19T03:13:46.638Z,1.02
2024-03-19T03:14:46.634Z,1.02
2024-03-19T03:15:46.689Z,1.03
2024-03-19T03:16:46.769Z,1.02
2024-03-19T03:17:46.763Z,1.02
2024-03-19T03:18:46.830Z,1.03
2024-03-19T03:19:46.830Z,1.02
2024-03-19T03:20:46.895Z,1.02
2024-03-19T03:21:46.914Z,1.02
2024-03-19T03:22:46.945Z,1.02
2024-03-19T03:23:47.018Z,1.03
2024-03-19T03:24:47.027Z,1.03
2024-03-19T03:25:47.133Z,1.02
2024-03-19T03:26:47.115Z,1.03
2024-03-19T03:27:47.146Z,1.02
2024-03-19T03:28:47.198Z,1.03
2024-03-19T03:29:47.202Z,1.01
2024-03-19T03:30:47.265Z,1.04
2024-03-19T03:31:47.294Z,1.02
2024-03-19T03:32:47.318Z,1.02
2024-03-19T03:33:47.398Z,1.03
2024-03-19T03:34:47.469Z,1.05
2024-03-19T03:35:47.456Z,1.04
2024-03-19T03:36:47.482Z,1.04
2024-03-19T03:37:47.505Z,1.02
2024-03-19T03:38:47.574Z,1.02
2024-03-19T03:39:47.582Z,1.04
2024-03-19T03:40:47.649Z,1.04
2024-03-19T03:41:47.626Z,1.05
2024-03-19T03:42:56.536Z,1.04
2024-03-19T03:43:48.769Z,1.04
2024-03-19T03:44:47.718Z,1.04
2024-03-19T03:45:47.729Z,1.04
2024-03-19T03:46:47.684Z,1.03
2024-03-19T03:47:47.703Z,1.04
2024-03-19T03:48:47.705Z,1.04
2024-03-19T03:49:47.709Z,1.04
2024-03-19T03:50:47.718Z,1.05
2024-03-19T03:51:47.829Z,1.05
2024-03-19T03:52:47.737Z,1.05
2024-03-19T03:53:47.711Z,1.03
2024-03-19T03:54:47.708Z,1.04
2024-03-19T03:55:47.722Z,1.03
2024-03-19T03:56:47.708Z,1.04
2024-03-19T03:57:47.696Z,1.05
2024-03-19T03:58:47.708Z,1.05
2024-03-19T03:59:47.735Z,1.04
2024-03-19T04:00:47.774Z,1.01
2024-03-19T04:01:47.782Z,1.04
2024-03-19T04:02:47.853Z,1.04
2024-03-19T04:03:47.844Z,1.04
2024-03-19T04:04:47.907Z,1.05
2024-03-19T04:05:47.984Z,1.04
2024-03-19T04:06:47.965Z,1.04
2024-03-19T04:07:48.004Z,1.05
2024-03-19T04:08:48.038Z,1.04
2024-03-19T04:09:48.044Z,1.06
2024-03-19T04:10:48.097Z,1.05
2024-03-19T04:11:48.125Z,1.04
2024-03-19T04:12:48.168Z,1.05
2024-03-19T04:13:48.240Z,1.06
2024-03-19T04:14:48.224Z,1.04
2024-03-19T04:15:48.292Z,1.06
2024-03-19T04:16:48.304Z,1.05
2024-03-19T04:17:48.362Z,1.05
2024-03-19T04:18:48.386Z,1.05
2024-03-19T04:19:48.436Z,1.05
2024-03-19T04:20:48.448Z,1.05
2024-03-19T04:21:48.515Z,1.05
2024-03-19T04:22:48.542Z,1.03
2024-03-19T04:23:48.599Z,1.06
2024-03-19T04:24:48.607Z,1.05
2024-03-19T04:25:48.662Z,1.05
2024-03-19T04:26:55.866Z,0.50
2024-03-19T04:27:55.943Z,0.50
2024-03-19T04:28:55.868Z,0.50
2024-03-19T04:29:55.871Z,0.50
2024-03-19T04:30:55.960Z,0.50
2024-03-19T04:32:03.155Z,0.50
2024-03-19T04:33:03.151Z,0.50
2024-03-19T04:34:04.107Z,0.50
2024-03-19T04:35:03.172Z,0.50
2024-03-19T04:36:03.155Z,0.50
2024-03-19T04:37:03.180Z,0.51
2024-03-19T04:38:03.190Z,0.50
2024-03-19T04:39:03.141Z,0.51
2024-03-19T04:40:03.170Z,0.50
2024-03-19T04:41:03.163Z,0.50
2024-03-19T04:42:03.249Z,0.50
2024-03-19T04:43:03.172Z,0.50
2024-03-19T04:44:03.179Z,0.51
2024-03-19T04:45:03.195Z,0.52
2024-03-19T04:46:03.193Z,0.52
2024-03-19T04:47:03.160Z,0.52
2024-03-19T04:48:03.213Z,0.51
2024-03-19T04:49:03.149Z,0.52
2024-03-19T04:50:03.183Z,0.52
2024-03-19T04:51:03.176Z,0.51
2024-03-19T04:52:03.567Z,0.51
2024-03-19T04:53:03.169Z,0.52
2024-03-19T04:54:03.200Z,0.51
2024-03-19T04:55:03.153Z,0.51
2024-03-19T04:56:03.178Z,0.51
2024-03-19T04:57:03.164Z,0.51
2024-03-19T04:58:03.166Z,0.51
2024-03-19T04:59:03.197Z,0.51
2024-03-19T05:00:03.159Z,0.51
2024-03-19T05:01:03.179Z,0.51
2024-03-19T05:02:05.800Z,0.50
2024-03-19T05:03:03.209Z,0.51
2024-03-19T05:04:03.186Z,0.51
2024-03-19T05:05:03.195Z,0.51
2024-03-19T05:06:03.186Z,0.51
2024-03-19T05:07:03.198Z,0.52
2024-03-19T05:08:03.194Z,0.51
2024-03-19T05:09:03.215Z,0.51
2024-03-19T05:10:03.198Z,0.50
2024-03-19T05:11:03.214Z,0.50
2024-03-19T05:12:03.224Z,0.50
2024-03-19T05:13:03.230Z,0.50
2024-03-19T05:14:03.214Z,0.51
2024-03-19T05:15:03.207Z,0.50
2024-03-19T05:16:03.191Z,0.51
2024-03-19T05:17:03.203Z,0.50
2024-03-19T05:18:03.204Z,0.50
2024-03-19T05:19:03.225Z,0.51
2024-03-19T05:20:03.228Z,0.50
2024-03-19T05:21:03.207Z,0.50
2024-03-19T05:22:03.245Z,0.50
2024-03-19T05:23:03.246Z,0.50
2024-03-19T05:24:03.229Z,0.51
2024-03-19T05:25:03.203Z,0.50
2024-03-19T05:26:03.221Z,0.50
2024-03-19T05:27:03.224Z,0.51
2024-03-19T05:28:03.218Z,0.51
2024-03-19T05:29:03.233Z,0.50
2024-03-19T05:30:03.268Z,0.50
2024-03-19T05:31:03.209Z,0.51
2024-03-19T05:32:03.202Z,0.50
2024-03-19T05:33:03.221Z,0.50
2024-03-19T05:34:03.228Z,0.50
2024-03-19T05:35:03.288Z,0.50
2024-03-19T05:36:03.239Z,0.51
2024-03-19T05:37:03.246Z,0.51
2024-03-19T05:38:03.248Z,0.50
2024-03-19T05:39:03.252Z,0.50
2024-03-19T05:40:03.208Z,0.52
2024-03-19T05:41:03.207Z,0.52
2024-03-19T05:42:03.220Z,0.52
2024-03-19T05:43:03.330Z,0.51
2024-03-19T05:44:03.242Z,0.52
2024-03-19T05:45:03.252Z,0.52
2024-03-19T05:46:03.246Z,0.52
2024-03-19T05:47:03.228Z,0.52
2024-03-19T05:48:03.224Z,0.53
2024-03-19T05:49:03.219Z,0.53
2024-03-19T05:50:03.224Z,0.52
2024-03-19T05:51:03.231Z,0.53
2024-03-19T05:52:03.238Z,0.53
2024-03-19T05:53:03.224Z,0.53
2024-03-19T05:54:03.237Z,0.53
2024-03-19T05:55:03.278Z,0.53
2024-03-19T05:56:03.225Z,0.53
2024-03-19T05:57:03.220Z,0.54
2024-03-19T05:58:03.215Z,0.53
2024-03-19T05:59:03.237Z,0.54
2024-03-19T06:00:06.542Z,0.53
2024-03-19T06:01:03.236Z,0.54
2024-03-19T06:02:03.247Z,0.54
2024-03-19T06:03:03.235Z,0.55
2024-03-19T06:04:03.234Z,0.55
2024-03-19T06:05:03.291Z,0.55
2024-03-19T06:06:03.290Z,0.55
2024-03-19T06:07:03.259Z,0.55
2024-03-19T06:08:03.247Z,0.56
2024-03-19T06:09:03.256Z,0.55
2024-03-19T06:10:03.244Z,0.54
2024-03-19T06:11:03.240Z,0.55
2024-03-19T06:12:05.551Z,0.55
2024-03-19T06:13:03.289Z,0.55
2024-03-19T06:14:03.240Z,0.55
2024-03-19T06:15:03.271Z,0.55
2024-03-19T06:16:03.260Z,0.56
2024-03-19T06:17:03.273Z,0.56
2024-03-19T06:18:03.252Z,0.55
2024-03-19T06:19:10.989Z,0.56
2024-03-19T06:20:04.270Z,0.56
2024-03-19T06:21:03.263Z,0.56
2024-03-19T06:22:03.272Z,0.56
2024-03-19T06:23:03.275Z,0.56
2024-03-19T06:24:05.314Z,0.56
2024-03-19T06:25:03.352Z,0.55
2024-03-19T06:26:03.240Z,0.57
2024-03-19T06:27:03.280Z,0.57
2024-03-19T06:28:03.252Z,0.57
2024-03-19T06:29:03.292Z,0.57
2024-03-19T06:30:03.319Z,0.56
2024-03-19T06:31:03.283Z,0.57
2024-03-19T06:32:03.258Z,0.56
2024-03-19T06:33:03.289Z,0.55
2024-03-19T06:34:03.304Z,0.56
2024-03-19T06:35:03.383Z,0.57
2024-03-19T06:36:03.420Z,0.57
2024-03-19T06:37:03.451Z,0.57
2024-03-19T06:38:03.479Z,0.57
2024-03-19T06:39:03.470Z,0.57
2024-03-19T06:40:03.554Z,0.57
2024-03-19T06:41:03.546Z,0.57
2024-03-19T06:42:03.584Z,0.57
2024-03-19T06:43:03.660Z,0.57
2024-03-19T06:44:03.710Z,0.57
2024-03-19T06:45:03.747Z,0.57
2024-03-19T06:46:03.789Z,0.57
2024-03-19T06:47:03.766Z,0.57
2024-03-19T06:48:03.798Z,0.57
2024-03-19T06:49:03.860Z,0.57
2024-03-19T06:50:03.903Z,0.57
2024-03-19T06:51:03.950Z,0.58
2024-03-19T06:52:03.981Z,0.57
2024-03-19T06:53:04.013Z,0.57
2024-03-19T06:54:04.018Z,0.57
2024-03-19T06:55:06.152Z,0.58
2024-03-19T06:56:04.107Z,0.57
2024-03-19T06:57:04.115Z,0.57
2024-03-19T06:58:04.166Z,0.58
2024-03-19T06:59:04.164Z,0.57
2024-03-19T07:00:04.226Z,0.57
2024-03-19T07:01:04.292Z,0.58
2024-03-19T07:02:04.317Z,0.58
2024-03-19T07:03:04.359Z,0.57
2024-03-19T07:04:07.403Z,0.57
2024-03-19T07:05:04.365Z,0.58
2024-03-19T07:06:04.432Z,0.58
2024-03-19T07:07:04.441Z,0.58
2024-03-19T07:08:04.387Z,0.58
2024-03-19T07:09:04.370Z,0.57
2024-03-19T07:10:04.366Z,0.58
2024-03-19T07:11:04.401Z,0.58
2024-03-19T07:12:04.416Z,0.58
2024-03-19T07:13:04.421Z,0.58
2024-03-19T07:14:04.396Z,0.58
2024-03-19T07:15:05.554Z,0.58
2024-03-19T07:16:04.371Z,0.59
2024-03-19T07:17:04.402Z,0.59
2024-03-19T07:18:04.420Z,0.58
2024-03-19T07:19:04.387Z,0.59
2024-03-19T07:20:04.375Z,0.58
2024-03-19T07:21:04.411Z,0.59
2024-03-19T07:22:04.389Z,0.58
2024-03-19T07:23:04.440Z,0.58
2024-03-19T07:24:04.415Z,0.59
2024-03-19T07:25:04.397Z,0.59
2024-03-19T07:26:04.434Z,0.59
2024-03-19T07:27:04.416Z,0.59
2024-03-19T07:28:04.398Z,0.59
2024-03-19T07:29:04.421Z,0.59
2024-03-19T07:30:04.403Z,0.59
2024-03-19T07:31:04.401Z,0.59
2024-03-19T07:32:04.421Z,0.59
2024-03-19T07:33:04.433Z,0.58
2024-03-19T07:34:04.427Z,0.58
2024-03-19T07:35:04.402Z,0.59
2024-03-19T07:36:04.500Z,0.60
2024-03-19T07:37:04.426Z,0.59
2024-03-19T07:38:04.407Z,0.59
2024-03-19T07:39:04.435Z,0.59
2024-03-19T07:40:04.474Z,0.59
2024-03-19T07:41:04.426Z,0.59
2024-03-19T07:42:04.820Z,0.59
2024-03-19T07:43:04.422Z,0.59
2024-03-19T07:44:04.439Z,0.60
2024-03-19T07:45:04.414Z,0.60
2024-03-19T07:46:04.422Z,0.59
2024-03-19T07:47:04.421Z,0.60
2024-03-19T07:48:04.419Z,0.59
2024-03-19T07:49:05.118Z,0.59
2024-03-19T07:50:04.456Z,0.59
2024-03-19T07:51:04.549Z,0.60
2024-03-19T07:52:04.566Z,0.59
2024-03-19T07:53:04.659Z,0.60
2024-03-19T07:54:04.669Z,0.60
2024-03-19T07:55:04.648Z,0.60
2024-03-19T07:56:04.661Z,0.59
2024-03-19T07:57:04.691Z,0.60
2024-03-19T07:58:04.820Z,0.60
2024-03-19T07:59:04.758Z,0.59
2024-03-19T08:00:04.839Z,0.60
2024-03-19T08:01:04.843Z,0.59
2024-03-19T08:02:04.913Z,0.60
2024-03-19T08:03:04.926Z,0.60
2024-03-19T08:04:06.216Z,0.60
2024-03-19T08:05:05.047Z,0.59
2024-03-19T08:06:05.025Z,0.60
2024-03-19T08:07:05.078Z,0.60
2024-03-19T08:08:05.091Z,0.60
2024-03-19T08:09:05.166Z,0.60
2024-03-19T08:10:05.276Z,0.60
2024-03-19T08:11:05.209Z,0.60
2024-03-19T08:12:05.290Z,0.60
2024-03-19T08:13:05.346Z,0.60
2024-03-19T08:14:05.317Z,0.60
2024-03-19T08:15:05.436Z,0.60
2024-03-19T08:16:05.423Z,0.59
2024-03-19T08:17:05.491Z,0.58
2024-03-19T08:18:05.524Z,0.59
2024-03-19T08:19:05.543Z,0.58
2024-03-19T08:20:05.595Z,0.58
2024-03-19T08:21:05.616Z,0.57
2024-03-19T08:22:05.702Z,0.57
2024-03-19T08:23:05.685Z,0.57
2024-03-19T08:24:05.709Z,0.57
2024-03-19T08:25:05.752Z,0.57
2024-03-19T08:26:05.854Z,0.57
2024-03-19T08:27:05.863Z,0.57
2024-03-19T08:28:05.864Z,0.55
2024-03-19T08:29:05.937Z,0.55
2024-03-19T08:30:06.739Z,0.56
2024-03-19T08:31:07.177Z,0.55
2024-03-19T08:32:05.988Z,0.55
2024-03-19T08:33:05.956Z,0.54
2024-03-19T08:34:05.985Z,0.54
2024-03-19T08:35:06.006Z,0.54
2024-03-19T08:36:05.989Z,0.53
2024-03-19T08:37:06.000Z,0.53
2024-03-19T08:38:06.015Z,0.53
2024-03-19T08:39:05.984Z,0.54
2024-03-19T08:40:06.016Z,0.53
2024-03-19T08:41:05.998Z,0.53
2024-03-19T08:42:06.992Z,0.53
2024-03-19T08:43:05.967Z,0.52
2024-03-19T08:44:06.011Z,0.51
2024-03-19T08:45:06.054Z,0.53
2024-03-19T08:46:06.064Z,0.53
2024-03-19T08:47:06.108Z,0.51
2024-03-19T08:48:06.206Z,0.52
2024-03-19T08:49:06.233Z,0.52
2024-03-19T08:50:06.205Z,0.52
2024-03-19T08:51:06.210Z,0.52
2024-03-19T08:52:06.246Z,0.52
2024-03-19T08:53:06.302Z,0.51
2024-03-19T08:54:06.337Z,0.51
2024-03-19T08:55:06.366Z,0.51
2024-03-19T08:56:06.397Z,0.51
2024-03-19T08:57:06.418Z,0.52
2024-03-19T08:58:06.450Z,0.52
2024-03-19T08:59:06.517Z,0.52
2024-03-19T09:00:06.516Z,0.52
2024-03-19T09:01:06.548Z,0.50
2024-03-19T09:02:06.582Z,0.52
2024-03-19T09:03:06.568Z,0.52
2024-03-19T09:04:06.636Z,0.51
2024-03-19T09:05:06.675Z,0.52
2024-03-19T09:06:06.738Z,0.51
2024-03-19T09:07:06.775Z,0.51
2024-03-19T09:08:06.809Z,0.51
2024-03-19T09:09:06.833Z,0.50
2024-03-19T09:10:06.875Z,0.52
2024-03-19T09:11:06.908Z,0.51
2024-03-19T09:12:06.951Z,0.52
2024-03-19T09:13:06.998Z,0.52
2024-03-19T09:14:06.980Z,0.51
2024-03-19T09:15:07.041Z,0.53
2024-03-19T09:16:07.202Z,0.52
2024-03-19T09:17:07.082Z,0.53
2024-03-19T09:18:07.146Z,0.52
2024-03-19T09:19:07.136Z,0.52
2024-03-19T09:20:07.280Z,0.52
2024-03-19T09:21:07.372Z,0.52
2024-03-19T09:22:07.318Z,0.51
2024-03-19T09:23:07.341Z,0.51
2024-03-19T09:24:07.337Z,0.51
2024-03-19T09:25:08.037Z,0.52
2024-03-19T09:26:07.418Z,0.52
2024-03-19T09:27:07.501Z,0.52
2024-03-19T09:28:07.584Z,0.51
2024-03-19T09:29:07.467Z,0.52
2024-03-19T09:30:07.581Z,0.52
2024-03-19T09:31:07.561Z,0.53
2024-03-19T09:32:07.573Z,0.52
2024-03-19T09:33:07.604Z,0.51
2024-03-19T09:34:07.662Z,0.51
2024-03-19T09:35:07.670Z,0.52
2024-03-19T09:36:07.743Z,0.52
2024-03-19T09:37:07.750Z,0.51
2024-03-19T09:38:07.823Z,0.51
2024-03-19T09:39:07.791Z,0.52
2024-03-19T09:40:07.854Z,0.52
2024-03-19T09:41:07.897Z,0.51
2024-03-19T09:42:07.924Z,0.51
2024-03-19T09:43:07.954Z,0.51
2024-03-19T09:44:08.000Z,0.52
2024-03-19T09:45:08.001Z,0.51
2024-03-19T09:46:08.031Z,0.52
2024-03-19T09:47:08.048Z,0.50
2024-03-19T09:48:08.085Z,0.52
2024-03-19T09:49:08.127Z,0.52
2024-03-19T09:50:08.170Z,0.52
2024-03-19T09:51:08.190Z,0.52
2024-03-19T09:52:08.224Z,0.52
2024-03-19T09:53:08.247Z,0.53
2024-03-19T09:54:09.855Z,0.51
2024-03-19T09:55:08.321Z,0.51
2024-03-19T09:56:08.287Z,0.52
2024-03-19T09:57:08.332Z,0.50
2024-03-19T09:58:08.371Z,0.52
2024-03-19T09:59:08.410Z,0.52
2024-03-19T10:00:08.421Z,0.52
2024-03-19T10:01:08.497Z,0.52
2024-03-19T10:02:08.483Z,0.51
2024-03-19T10:03:08.535Z,0.53
2024-03-19T10:04:08.603Z,0.52
2024-03-19T10:05:08.604Z,0.51
2024-03-19T10:06:08.671Z,0.52
2024-03-19T10:07:08.663Z,0.52
2024-03-19T10:08:08.731Z,0.51
2024-03-19T10:09:08.778Z,0.52
2024-03-19T10:10:08.753Z,0.51
2024-03-19T10:12:08.801Z,0.52
2024-03-19T10:13:08.867Z,0.50
2024-03-19T10:14:08.892Z,0.52
2024-03-19T10:15:08.974Z,0.52
2024-03-19T10:16:08.929Z,0.51
2024-03-19T10:17:08.945Z,0.52
2024-03-19T10:18:09.032Z,0.52
2024-03-19T10:19:09.071Z,0.51
2024-03-19T10:20:09.176Z,0.52
2024-03-19T10:21:09.137Z,0.51
2024-03-19T10:22:09.128Z,0.52
2024-03-19T10:23:09.181Z,0.51
2024-03-19T10:24:09.184Z,0.52
2024-03-19T10:25:09.235Z,0.52
2024-03-19T10:26:09.257Z,0.52
2024-03-19T10:27:09.271Z,0.52
2024-03-19T10:28:09.382Z,0.52
2024-03-19T10:29:09.332Z,0.52
2024-03-19T10:30:09.578Z,0.52
2024-03-19T10:31:09.423Z,0.51
2024-03-19T10:32:15.199Z,0.51
2024-03-19T10:33:10.497Z,0.51
2024-03-19T10:34:09.417Z,0.51
2024-03-19T10:35:09.458Z,0.51
2024-03-19T10:36:09.451Z,0.50
2024-03-19T10:37:09.450Z,0.52
2024-03-19T10:39:10.420Z,0.51
2024-03-19T10:40:09.569Z,0.50
2024-03-19T10:41:09.490Z,0.52
2024-03-19T10:42:09.459Z,0.51
2024-03-19T10:43:09.540Z,0.50
2024-03-19T10:44:09.507Z,0.52
2024-03-19T10:45:09.488Z,0.51
2024-03-19T10:46:09.412Z,0.52
2024-03-19T10:47:09.444Z,0.52
2024-03-19T10:48:09.482Z,0.51
2024-03-19T10:49:09.470Z,0.51
2024-03-19T10:50:09.480Z,0.52
2024-03-19T10:51:09.497Z,0.51
2024-03-19T10:52:10.099Z,0.51
2024-03-19T10:53:09.545Z,0.51
2024-03-19T10:54:09.600Z,0.51
2024-03-19T10:55:09.676Z,0.51
2024-03-19T10:56:09.699Z,0.51
2024-03-19T10:57:09.675Z,0.50
2024-03-19T10:58:09.789Z,0.50
2024-03-19T10:59:09.796Z,0.51
2024-03-19T11:00:09.803Z,0.50
2024-03-19T11:01:11.832Z,0.51
2024-03-19T11:02:09.817Z,0.51
2024-03-19T11:03:09.875Z,0.52
2024-03-19T11:04:09.835Z,0.51
2024-03-19T11:05:09.850Z,0.51
2024-03-19T11:06:09.864Z,0.50
2024-03-19T11:07:09.850Z,0.51
2024-03-19T11:08:09.900Z,0.51
2024-03-19T11:09:09.863Z,0.52
2024-03-19T11:10:09.823Z,0.51
2024-03-19T11:11:09.816Z,0.50
2024-03-19T11:12:09.832Z,0.51
2024-03-19T11:13:09.889Z,0.52
2024-03-19T11:14:09.825Z,0.52
2024-03-19T11:15:09.854Z,0.52
2024-03-19T11:16:09.836Z,0.51
2024-03-19T11:17:09.851Z,0.51
2024-03-19T11:18:09.823Z,0.51
2024-03-19T11:19:09.837Z,0.51
2024-03-19T11:20:09.830Z,0.52
2024-03-19T11:21:09.852Z,0.50
2024-03-19T11:22:09.810Z,0.51
2024-03-19T11:23:09.850Z,0.50
2024-03-19T11:24:09.865Z,0.51
2024-03-19T11:25:09.839Z,0.52
2024-03-19T11:26:09.841Z,0.51
2024-03-19T11:27:09.913Z,0.50
2024-03-19T11:28:09.851Z,0.51
2024-03-19T11:29:09.831Z,0.50
2024-03-19T11:30:09.859Z,0.51
2024-03-19T11:31:09.863Z,0.51
2024-03-19T11:32:09.877Z,0.51
2024-03-19T11:33:09.883Z,0.50
2024-03-19T11:34:09.888Z,0.52
2024-03-19T11:35:09.909Z,0.52
2024-03-19T11:36:10.895Z,0.50
2024-03-19T11:37:09.917Z,0.51
2024-03-19T11:38:09.908Z,0.51
2024-03-19T11:39:09.886Z,0.51
2024-03-19T11:40:09.951Z,0.51
2024-03-19T11:41:23.447Z,0.52
2024-03-19T11:42:10.866Z,0.52
2024-03-19T11:43:09.909Z,0.52
2024-03-19T11:44:11.691Z,0.52
2024-03-19T11:45:09.962Z,0.53
2024-03-19T11:46:10.028Z,0.53
2024-03-19T11:47:10.032Z,0.54
2024-03-19T11:48:11.776Z,0.53
2024-03-19T11:49:10.098Z,0.53
2024-03-19T11:50:10.079Z,0.52
2024-03-19T11:51:10.058Z,0.52
2024-03-19T11:52:10.070Z,0.53
2024-03-19T11:53:10.073Z,0.51
2024-03-19T11:54:12.419Z,0.52
2024-03-19T11:55:10.332Z,0.52
2024-03-19T11:56:10.294Z,0.52
2024-03-19T11:57:10.353Z,0.52
2024-03-19T11:58:10.456Z,0.50
2024-03-19T11:59:10.427Z,0.51
2024-03-19T12:00:12.991Z,0.50
2024-03-19T12:01:10.742Z,0.53
2024-03-19T12:02:10.750Z,0.52
2024-03-19T12:03:10.753Z,0.52
2024-03-19T12:04:10.816Z,0.52
2024-03-19T12:05:10.809Z,0.52
2024-03-19T12:06:12.683Z,0.52
2024-03-19T12:07:10.893Z,0.51
2024-03-19T12:08:10.888Z,0.52
2024-03-19T12:09:10.980Z,0.51
2024-03-19T12:10:10.970Z,0.51
2024-03-19T12:11:11.014Z,0.51
2024-03-19T12:12:11.063Z,0.51
2024-03-19T12:13:11.024Z,0.51
2024-03-19T12:14:11.086Z,0.52
2024-03-19T12:15:11.090Z,0.51
2024-03-19T12:16:12.789Z,0.51
2024-03-19T12:17:11.227Z,0.50
2024-03-19T12:18:11.230Z,0.51
2024-03-19T12:19:11.210Z,0.50
2024-03-19T12:20:11.283Z,0.51
2024-03-19T12:21:11.290Z,0.51
2024-03-19T12:22:13.103Z,0.51
2024-03-19T12:23:11.351Z,0.51
2024-03-19T12:24:11.362Z,0.51
2024-03-19T12:25:11.386Z,0.51
2024-03-19T12:26:11.419Z,0.51
2024-03-19T12:27:11.484Z,0.51
2024-03-19T12:28:12.932Z,0.51
2024-03-19T12:29:11.551Z,0.52
2024-03-19T12:30:11.565Z,0.52
2024-03-19T12:31:11.600Z,0.50
2024-03-19T12:32:11.621Z,0.50
2024-03-19T12:33:11.674Z,0.51
2024-03-19T12:34:11.699Z,0.52
2024-03-19T12:35:11.696Z,0.51
2024-03-19T12:36:11.756Z,0.51
2024-03-19T12:37:11.766Z,0.50
2024-03-19T12:38:11.810Z,0.51
2024-03-19T12:39:11.835Z,0.52
2024-03-19T12:40:11.885Z,0.51
2024-03-19T12:41:11.893Z,0.51
2024-03-19T12:42:11.941Z,0.52
2024-03-19T12:43:11.962Z,0.51
2024-03-19T12:44:11.968Z,0.52
2024-03-19T12:45:11.968Z,0.52
2024-03-19T12:46:12.175Z,0.52
2024-03-19T12:47:12.114Z,0.53
2024-03-19T12:48:12.096Z,0.53
2024-03-19T12:49:12.098Z,0.52
2024-03-19T12:50:12.106Z,0.52
2024-03-19T12:51:12.137Z,0.52
2024-03-19T12:52:12.154Z,0.52
2024-03-19T12:53:12.275Z,0.50
2024-03-19T12:54:12.234Z,0.52
2024-03-19T12:55:12.291Z,0.53
2024-03-19T12:56:12.309Z,0.50
2024-03-19T12:57:14.775Z,0.50
2024-03-19T12:58:12.326Z,0.50
2024-03-19T12:59:12.373Z,0.50
2024-03-19T13:00:12.342Z,0.51
2024-03-19T13:01:12.335Z,0.50
2024-03-19T13:02:12.344Z,0.50
2024-03-19T13:03:12.347Z,0.51
2024-03-19T13:04:12.341Z,0.51
2024-03-19T13:05:12.349Z,0.52
2024-03-19T13:06:12.368Z,0.50
2024-03-19T13:07:12.348Z,0.51
2024-03-19T13:08:12.333Z,0.51
2024-03-19T13:09:12.337Z,0.50
2024-03-19T13:10:12.353Z,0.51
2024-03-19T13:11:12.349Z,0.50
2024-03-19T13:12:12.364Z,0.51
2024-03-19T13:13:12.363Z,0.50
2024-03-19T13:14:12.342Z,0.51
2024-03-19T13:15:12.381Z,0.50
2024-03-19T13:16:12.416Z,0.51
2024-03-19T13:17:12.333Z,0.51
2024-03-19T13:18:12.346Z,0.51
2024-03-19T13:19:12.370Z,0.52
2024-03-19T13:20:12.344Z,0.50
2024-03-19T13:21:12.373Z,0.50